Flugplatz Kulmbach

Für EDQK sind keine METAR/TAF Berichte vorhanden.
Es werden die Flugwettermeldungen vom Flugplatz Hof-Plauen in 32 km Entfernung angezeigt.

Bericht für EDQM

vom 16.01. um 09:20 UTC

Wind 10 kt aus 220°

Sichtweite 700 m

Code: FZFG

bedeckt in 100 ft

Temperatur -2.0°C

Taupunkt -2.0°C

Luftfeuchtigkeit 100%

Luftdruck 1021 hPa

EDQM 160920Z 22010KT 190V250 0700 R26/1000N FZFG OVC001 M02/M02 Q1021

Prognose für EDQM

vom 16.01. um 08:00 UTC

Zwischen 09:00 UTC und 18:00 UTC

Wind 10 kt aus 240°

Sichtweite 800 m

Code: FZFG

aufgebrochene Bewölkung in 100 ft


Zwischen 09:00 und 11:00 UTC übergehend zu

Wind 10 kt aus 240°

Sichtweite 3000 m

feuchter Dunst

aufgebrochene Bewölkung in 300 ft


Zwischen 11:00 und 13:00 UTC übergehend zu

Wind 10 kt aus 240°

Sichtweite 6000 m

feuchter Dunst

aufgebrochene Bewölkung in 600 ft


Zwischen 12:00 UTC und 18:00 UTC zeitweise mit einer Wahrscheinlichkeit von 40%

Sichtweite 2500 m

Code: FZDZ

schwacher Schneegriesel

aufgebrochene Bewölkung in 300 ft

TAF EDQM 160800Z 1609/1618 24010KT 0800 FZFG BKN001 BECMG 1609/1611 3000 BR BKN003 BECMG 1611/1613 6000 BKN006 PROB40 TEMPO 1612/1618 2500 -SGFZDZ BKN003
Impressum